sensor_id;sensor_type;location;lat;lon;timestamp;pressure;altitude;pressure_sealevel;temperature;humidity
52949;BME280;38812;50.942;3.644;2023-03-15T00:01:45;101269.41;;;3.83;100.00
52949;BME280;38812;50.942;3.644;2023-03-15T00:04:11;101279.03;;;3.88;100.00
52949;BME280;38812;50.942;3.644;2023-03-15T00:06:37;101264.22;;;3.83;100.00
52949;BME280;38812;50.942;3.644;2023-03-15T00:09:02;101278.94;;;3.82;100.00
52949;BME280;38812;50.942;3.644;2023-03-15T00:11:29;101291.97;;;3.84;100.00
52949;BME280;38812;50.942;3.644;2023-03-15T00:13:57;101285.88;;;3.82;100.00
52949;BME280;38812;50.942;3.644;2023-03-15T00:16:22;101274.44;;;3.70;100.00
52949;BME280;38812;50.942;3.644;2023-03-15T00:18:52;101288.31;;;3.72;100.00
52949;BME280;38812;50.942;3.644;2023-03-15T00:21:18;101297.88;;;3.73;100.00
52949;BME280;38812;50.942;3.644;2023-03-15T00:23:44;101300.31;;;3.61;100.00
52949;BME280;38812;50.942;3.644;2023-03-15T00:26:09;101307.19;;;3.58;100.00
52949;BME280;38812;50.942;3.644;2023-03-15T00:28:35;101307.88;;;3.48;100.00
52949;BME280;38812;50.942;3.644;2023-03-15T00:31:04;101314.84;;;3.50;100.00
52949;BME280;38812;50.942;3.644;2023-03-15T00:33:30;101306.09;;;3.43;100.00
52949;BME280;38812;50.942;3.644;2023-03-15T00:36:02;101314.69;;;3.39;100.00
52949;BME280;38812;50.942;3.644;2023-03-15T00:38:28;101309.44;;;3.35;100.00
52949;BME280;38812;50.942;3.644;2023-03-15T00:40:53;101322.34;;;3.32;100.00
52949;BME280;38812;50.942;3.644;2023-03-15T00:43:18;101319.84;;;3.36;100.00
52949;BME280;38812;50.942;3.644;2023-03-15T00:45:44;101329.41;;;3.39;100.00
52949;BME280;38812;50.942;3.644;2023-03-15T00:48:09;101324.16;;;3.36;100.00
52949;BME280;38812;50.942;3.644;2023-03-15T00:50:35;101325.97;;;3.40;100.00
52949;BME280;38812;50.942;3.644;2023-03-15T00:53:00;101328.00;;;3.59;100.00
52949;BME280;38812;50.942;3.644;2023-03-15T00:55:26;101331.34;;;3.52;100.00
52949;BME280;38812;50.942;3.644;2023-03-15T00:57:51;101326.09;;;3.49;100.00
52949;BME280;38812;50.942;3.644;2023-03-15T01:00:19;101327.84;;;3.52;100.00
52949;BME280;38812;50.942;3.644;2023-03-15T01:02:47;101319.03;;;3.40;100.00
52949;BME280;38812;50.942;3.644;2023-03-15T01:05:13;101338.25;;;3.52;100.00
52949;BME280;38812;50.942;3.644;2023-03-15T01:07:38;101346.88;;;3.49;100.00
52949;BME280;38812;50.942;3.644;2023-03-15T01:10:05;101358.13;;;3.50;100.00
52949;BME280;38812;50.942;3.644;2023-03-15T01:12:32;101352.97;;;3.51;100.00
52949;BME280;38812;50.942;3.644;2023-03-15T01:14:59;101353.88;;;3.55;100.00
52949;BME280;38812;50.942;3.644;2023-03-15T01:17:25;101341.03;;;3.62;100.00
52949;BME280;38812;50.942;3.644;2023-03-15T01:19:50;101360.94;;;3.62;100.00
52949;BME280;38812;50.942;3.644;2023-03-15T01:22:17;101346.13;;;3.56;100.00
52949;BME280;38812;50.942;3.644;2023-03-15T01:24:42;101341.06;;;3.64;100.00
52949;BME280;38812;50.942;3.644;2023-03-15T01:27:08;101346.19;;;3.61;100.00
52949;BME280;38812;50.942;3.644;2023-03-15T01:29:33;101350.56;;;3.63;100.00
52949;BME280;38812;50.942;3.644;2023-03-15T01:31:59;101350.53;;;3.60;100.00
52949;BME280;38812;50.942;3.644;2023-03-15T01:34:24;101361.72;;;3.56;100.00
52949;BME280;38812;50.942;3.644;2023-03-15T01:36:49;101367.69;;;3.52;100.00
52949;BME280;38812;50.942;3.644;2023-03-15T01:39:16;101364.28;;;3.55;100.00
52949;BME280;38812;50.942;3.644;2023-03-15T01:41:42;101371.22;;;3.56;100.00
52949;BME280;38812;50.942;3.644;2023-03-15T01:44:15;101383.41;;;3.58;100.00
52949;BME280;38812;50.942;3.644;2023-03-15T01:46:41;101394.69;;;3.60;100.00
52949;BME280;38812;50.942;3.644;2023-03-15T01:49:11;101392.97;;;3.61;100.00
52949;BME280;38812;50.942;3.644;2023-03-15T01:51:44;101396.38;;;3.58;100.00
52949;BME280;38812;50.942;3.644;2023-03-15T01:56:46;101406.78;;;3.58;100.00
52949;BME280;38812;50.942;3.644;2023-03-15T01:59:21;101381.44;;;3.43;100.00
52949;BME280;38812;50.942;3.644;2023-03-15T02:01:48;101393.53;;;3.43;100.00
52949;BME280;38812;50.942;3.644;2023-03-15T02:04:22;101388.25;;;3.37;100.00
52949;BME280;38812;50.942;3.644;2023-03-15T02:06:50;101393.25;;;3.28;100.00
52949;BME280;38812;50.942;3.644;2023-03-15T02:09:33;101385.31;;;3.17;100.00
52949;BME280;38812;50.942;3.644;2023-03-15T02:12:00;101386.03;;;3.10;100.00
52949;BME280;38812;50.942;3.644;2023-03-15T02:14:26;101395.47;;;3.06;100.00
52949;BME280;38812;50.942;3.644;2023-03-15T02:16:53;101384.16;;;3.01;100.00
52949;BME280;38812;50.942;3.644;2023-03-15T02:22:08;101382.44;;;3.03;100.00
52949;BME280;38812;50.942;3.644;2023-03-15T02:24:55;101400.84;;;3.16;100.00
52949;BME280;38812;50.942;3.644;2023-03-15T02:27:32;101404.31;;;3.16;100.00
52949;BME280;38812;50.942;3.644;2023-03-15T02:29:59;101396.38;;;3.08;100.00
52949;BME280;38812;50.942;3.644;2023-03-15T02:32:27;101389.34;;;3.01;100.00
52949;BME280;38812;50.942;3.644;2023-03-15T02:34:52;101398.88;;;3.01;100.00
52949;BME280;38812;50.942;3.644;2023-03-15T02:37:18;101406.63;;;2.99;100.00
52949;BME280;38812;50.942;3.644;2023-03-15T02:39:43;101404.84;;;2.97;100.00
52949;BME280;38812;50.942;3.644;2023-03-15T02:42:09;101397.88;;;2.94;100.00
52949;BME280;38812;50.942;3.644;2023-03-15T02:44:37;101400.56;;;2.99;100.00
52949;BME280;38812;50.942;3.644;2023-03-15T02:47:27;101404.88;;;2.98;100.00
52949;BME280;38812;50.942;3.644;2023-03-15T02:49:52;101416.94;;;2.96;100.00
52949;BME280;38812;50.942;3.644;2023-03-15T02:52:18;101414.94;;;2.83;100.00
52949;BME280;38812;50.942;3.644;2023-03-15T02:54:44;101422.28;;;2.62;100.00
52949;BME280;38812;50.942;3.644;2023-03-15T02:57:11;101437.75;;;2.56;100.00
52949;BME280;38812;50.942;3.644;2023-03-15T02:59:37;101450.03;;;2.64;100.00
52949;BME280;38812;50.942;3.644;2023-03-15T03:02:04;101452.09;;;2.81;100.00
52949;BME280;38812;50.942;3.644;2023-03-15T03:04:29;101450.63;;;2.93;100.00
52949;BME280;38812;50.942;3.644;2023-03-15T03:06:55;101455.03;;;2.97;100.00
52949;BME280;38812;50.942;3.644;2023-03-15T03:09:22;101449.72;;;2.91;100.00
52949;BME280;38812;50.942;3.644;2023-03-15T03:11:47;101455.50;;;2.78;100.00
52949;BME280;38812;50.942;3.644;2023-03-15T03:14:12;101468.91;;;2.57;100.00
52949;BME280;38812;50.942;3.644;2023-03-15T03:16:39;101461.34;;;2.68;100.00
52949;BME280;38812;50.942;3.644;2023-03-15T03:19:04;101463.53;;;2.90;100.00
52949;BME280;38812;50.942;3.644;2023-03-15T03:21:30;101465.34;;;2.94;100.00
52949;BME280;38812;50.942;3.644;2023-03-15T03:23:55;101457.72;;;3.02;100.00
52949;BME280;38812;50.942;3.644;2023-03-15T03:26:21;101475.88;;;3.03;100.00
52949;BME280;38812;50.942;3.644;2023-03-15T03:28:52;101477.41;;;2.92;100.00
52949;BME280;38812;50.942;3.644;2023-03-15T03:31:20;101487.72;;;2.89;100.00
52949;BME280;38812;50.942;3.644;2023-03-15T03:33:46;101487.06;;;2.98;100.00
52949;BME280;38812;50.942;3.644;2023-03-15T03:36:12;101479.16;;;2.93;100.00
52949;BME280;38812;50.942;3.644;2023-03-15T03:38:42;101480.97;;;2.97;100.00
52949;BME280;38812;50.942;3.644;2023-03-15T03:41:13;101494.94;;;3.02;100.00
52949;BME280;38812;50.942;3.644;2023-03-15T03:43:39;101492.34;;;3.04;100.00
52949;BME280;38812;50.942;3.644;2023-03-15T03:46:05;101488.50;;;3.29;100.00
52949;BME280;38812;50.942;3.644;2023-03-15T03:48:31;101483.69;;;3.02;100.00
52949;BME280;38812;50.942;3.644;2023-03-15T03:50:57;101504.59;;;3.11;100.00
52949;BME280;38812;50.942;3.644;2023-03-15T03:53:23;101511.25;;;2.97;100.00
52949;BME280;38812;50.942;3.644;2023-03-15T03:55:48;101512.50;;;2.73;100.00
52949;BME280;38812;50.942;3.644;2023-03-15T03:58:14;101508.38;;;2.44;100.00
52949;BME280;38812;50.942;3.644;2023-03-15T04:00:39;101520.09;;;2.27;100.00
52949;BME280;38812;50.942;3.644;2023-03-15T04:03:06;101514.28;;;2.01;100.00
52949;BME280;38812;50.942;3.644;2023-03-15T04:05:32;101524.31;;;1.87;100.00
52949;BME280;38812;50.942;3.644;2023-03-15T04:07:57;101518.72;;;1.70;100.00
52949;BME280;38812;50.942;3.644;2023-03-15T04:10:23;101519.16;;;1.56;100.00
52949;BME280;38812;50.942;3.644;2023-03-15T04:12:55;101525.09;;;1.50;100.00
52949;BME280;38812;50.942;3.644;2023-03-15T04:15:22;101537.94;;;1.47;100.00
52949;BME280;38812;50.942;3.644;2023-03-15T04:17:49;101523.28;;;1.48;100.00
52949;BME280;38812;50.942;3.644;2023-03-15T04:20:22;101527.31;;;1.69;100.00
52949;BME280;38812;50.942;3.644;2023-03-15T04:22:48;101531.16;;;1.85;100.00
52949;BME280;38812;50.942;3.644;2023-03-15T04:25:18;101530.97;;;1.78;100.00
52949;BME280;38812;50.942;3.644;2023-03-15T04:27:44;101538.16;;;1.88;100.00
52949;BME280;38812;50.942;3.644;2023-03-15T04:30:10;101531.50;;;1.64;100.00
52949;BME280;38812;50.942;3.644;2023-03-15T04:32:36;101525.88;;;1.48;100.00
52949;BME280;38812;50.942;3.644;2023-03-15T04:35:01;101533.75;;;1.51;100.00
52949;BME280;38812;50.942;3.644;2023-03-15T04:37:27;101544.78;;;1.45;100.00
52949;BME280;38812;50.942;3.644;2023-03-15T04:39:53;101535.97;;;1.38;100.00
52949;BME280;38812;50.942;3.644;2023-03-15T04:42:19;101539.63;;;1.45;100.00
52949;BME280;38812;50.942;3.644;2023-03-15T04:44:44;101548.72;;;1.62;100.00
52949;BME280;38812;50.942;3.644;2023-03-15T04:47:10;101550.69;;;1.71;100.00
52949;BME280;38812;50.942;3.644;2023-03-15T04:49:36;101551.00;;;1.85;100.00
52949;BME280;38812;50.942;3.644;2023-03-15T04:52:01;101555.72;;;1.66;100.00
52949;BME280;38812;50.942;3.644;2023-03-15T04:54:26;101560.66;;;1.57;100.00
52949;BME280;38812;50.942;3.644;2023-03-15T04:56:52;101573.16;;;1.41;100.00
52949;BME280;38812;50.942;3.644;2023-03-15T04:59:17;101580.59;;;1.28;100.00
52949;BME280;38812;50.942;3.644;2023-03-15T05:01:43;101584.66;;;1.20;100.00
52949;BME280;38812;50.942;3.644;2023-03-15T05:04:08;101589.50;;;1.10;100.00
52949;BME280;38812;50.942;3.644;2023-03-15T05:06:33;101582.47;;;1.04;100.00
52949;BME280;38812;50.942;3.644;2023-03-15T05:08:59;101578.75;;;0.96;100.00
52949;BME280;38812;50.942;3.644;2023-03-15T05:11:24;101586.47;;;0.94;100.00
52949;BME280;38812;50.942;3.644;2023-03-15T05:13:50;101587.25;;;0.92;100.00
52949;BME280;38812;50.942;3.644;2023-03-15T05:16:16;101592.22;;;0.84;100.00
52949;BME280;38812;50.942;3.644;2023-03-15T05:18:41;101599.06;;;0.82;100.00
52949;BME280;38812;50.942;3.644;2023-03-15T05:21:09;101601.84;;;0.90;100.00
52949;BME280;38812;50.942;3.644;2023-03-15T05:23:36;101593.88;;;0.82;100.00
52949;BME280;38812;50.942;3.644;2023-03-15T05:26:02;101603.81;;;0.97;100.00
52949;BME280;38812;50.942;3.644;2023-03-15T05:28:27;101604.50;;;0.91;100.00
52949;BME280;38812;50.942;3.644;2023-03-15T05:30:53;101597.47;;;0.87;100.00
52949;BME280;38812;50.942;3.644;2023-03-15T05:33:19;101619.13;;;0.91;100.00
52949;BME280;38812;50.942;3.644;2023-03-15T05:35:45;101599.06;;;0.82;100.00
52949;BME280;38812;50.942;3.644;2023-03-15T05:38:11;101614.41;;;1.05;100.00
52949;BME280;38812;50.942;3.644;2023-03-15T05:40:47;101618.00;;;1.11;100.00
52949;BME280;38812;50.942;3.644;2023-03-15T05:43:13;101626.84;;;1.18;100.00
52949;BME280;38812;50.942;3.644;2023-03-15T05:45:38;101617.59;;;1.26;100.00
52949;BME280;38812;50.942;3.644;2023-03-15T05:48:04;101619.53;;;1.33;100.00
52949;BME280;38812;50.942;3.644;2023-03-15T05:50:30;101618.88;;;1.40;100.00
52949;BME280;38812;50.942;3.644;2023-03-15T05:52:56;101628.13;;;1.32;100.00
52949;BME280;38812;50.942;3.644;2023-03-15T05:55:21;101620.34;;;1.32;100.00
52949;BME280;38812;50.942;3.644;2023-03-15T05:57:47;101632.66;;;1.39;100.00
52949;BME280;38812;50.942;3.644;2023-03-15T06:00:13;101639.03;;;1.50;100.00
52949;BME280;38812;50.942;3.644;2023-03-15T06:02:42;101638.25;;;1.54;100.00
52949;BME280;38812;50.942;3.644;2023-03-15T06:05:08;101639.91;;;1.52;100.00
52949;BME280;38812;50.942;3.644;2023-03-15T06:07:33;101654.47;;;1.47;100.00
52949;BME280;38812;50.942;3.644;2023-03-15T06:09:59;101648.78;;;1.30;100.00
52949;BME280;38812;50.942;3.644;2023-03-15T06:12:24;101661.66;;;1.27;100.00
52949;BME280;38812;50.942;3.644;2023-03-15T06:14:50;101649.31;;;1.19;100.00
52949;BME280;38812;50.942;3.644;2023-03-15T06:17:15;101651.75;;;1.14;100.00
52949;BME280;38812;50.942;3.644;2023-03-15T06:19:41;101664.56;;;1.10;100.00
52949;BME280;38812;50.942;3.644;2023-03-15T06:22:06;101662.53;;;0.99;100.00
52949;BME280;38812;50.942;3.644;2023-03-15T06:24:31;101668.78;;;1.06;100.00
52949;BME280;38812;50.942;3.644;2023-03-15T06:26:57;101671.22;;;1.01;100.00
52949;BME280;38812;50.942;3.644;2023-03-15T06:29:23;101673.16;;;1.09;100.00
52949;BME280;38812;50.942;3.644;2023-03-15T06:31:49;101673.44;;;1.18;100.00
52949;BME280;38812;50.942;3.644;2023-03-15T06:34:15;101676.94;;;1.20;100.00
52949;BME280;38812;50.942;3.644;2023-03-15T06:36:40;101673.72;;;1.27;100.00
52949;BME280;38812;50.942;3.644;2023-03-15T06:39:10;101682.47;;;1.32;100.00
52949;BME280;38812;50.942;3.644;2023-03-15T06:41:37;101665.28;;;1.34;100.00
52949;BME280;38812;50.942;3.644;2023-03-15T06:44:03;101679.34;;;1.42;100.00
52949;BME280;38812;50.942;3.644;2023-03-15T06:46:28;101684.56;;;1.44;100.00
52949;BME280;38812;50.942;3.644;2023-03-15T06:48:54;101669.31;;;1.54;100.00
52949;BME280;38812;50.942;3.644;2023-03-15T06:51:19;101692.09;;;1.96;100.00
52949;BME280;38812;50.942;3.644;2023-03-15T06:53:44;101694.63;;;2.26;100.00
52949;BME280;38812;50.942;3.644;2023-03-15T06:56:10;101697.22;;;2.60;100.00
52949;BME280;38812;50.942;3.644;2023-03-15T06:58:35;101701.94;;;2.75;100.00
52949;BME280;38812;50.942;3.644;2023-03-15T07:01:01;101707.66;;;2.96;100.00
52949;BME280;38812;50.942;3.644;2023-03-15T07:03:26;101703.03;;;3.21;100.00
52949;BME280;38812;50.942;3.644;2023-03-15T07:05:52;101706.56;;;3.26;100.00
52949;BME280;38812;50.942;3.644;2023-03-15T07:08:20;101712.13;;;3.41;100.00
52949;BME280;38812;50.942;3.644;2023-03-15T07:10:46;101722.78;;;3.53;100.00
52949;BME280;38812;50.942;3.644;2023-03-15T07:13:13;101724.66;;;3.60;100.00
52949;BME280;38812;50.942;3.644;2023-03-15T07:15:38;101735.19;;;3.66;100.00
52949;BME280;38812;50.942;3.644;2023-03-15T07:18:03;101735.50;;;3.82;100.00
52949;BME280;38812;50.942;3.644;2023-03-15T07:20:29;101735.75;;;3.94;100.00
52949;BME280;38812;50.942;3.644;2023-03-15T07:22:55;101743.59;;;3.97;100.00
52949;BME280;38812;50.942;3.644;2023-03-15T07:25:21;101749.81;;;4.03;100.00
52949;BME280;38812;50.942;3.644;2023-03-15T07:27:49;101744.53;;;3.99;100.00
52949;BME280;38812;50.942;3.644;2023-03-15T07:30:16;101770.06;;;4.20;100.00
52949;BME280;38812;50.942;3.644;2023-03-15T07:32:41;101753.66;;;4.22;100.00
52949;BME280;38812;50.942;3.644;2023-03-15T07:35:07;101764.28;;;4.34;100.00
52949;BME280;38812;50.942;3.644;2023-03-15T07:37:33;101779.09;;;4.38;100.00
52949;BME280;38812;50.942;3.644;2023-03-15T07:39:58;101775.72;;;4.42;100.00
52949;BME280;38812;50.942;3.644;2023-03-15T07:42:25;101774.19;;;4.54;100.00
52949;BME280;38812;50.942;3.644;2023-03-15T07:44:50;101771.25;;;4.83;100.00
52949;BME280;38812;50.942;3.644;2023-03-15T07:47:16;101776.72;;;5.00;100.00
52949;BME280;38812;50.942;3.644;2023-03-15T07:49:41;101782.75;;;4.96;100.00
52949;BME280;38812;50.942;3.644;2023-03-15T07:52:07;101781.34;;;5.16;100.00
52949;BME280;38812;50.942;3.644;2023-03-15T07:54:32;101782.72;;;5.50;100.00
52949;BME280;38812;50.942;3.644;2023-03-15T07:56:58;101788.56;;;5.93;100.00
52949;BME280;38812;50.942;3.644;2023-03-15T07:59:24;101792.22;;;6.09;100.00
52949;BME280;38812;50.942;3.644;2023-03-15T08:01:49;101785.31;;;6.12;100.00
52949;BME280;38812;50.942;3.644;2023-03-15T08:04:15;101779.34;;;6.19;100.00
52949;BME280;38812;50.942;3.644;2023-03-15T08:06:41;101785.50;;;6.26;100.00
52949;BME280;38812;50.942;3.644;2023-03-15T08:09:06;101791.72;;;6.37;100.00
52949;BME280;38812;50.942;3.644;2023-03-15T08:11:32;101781.63;;;6.74;100.00
52949;BME280;38812;50.942;3.644;2023-03-15T08:13:57;101790.78;;;7.25;100.00
52949;BME280;38812;50.942;3.644;2023-03-15T08:16:23;101794.50;;;7.60;100.00
52949;BME280;38812;50.942;3.644;2023-03-15T08:18:48;101797.44;;;8.18;100.00
52949;BME280;38812;50.942;3.644;2023-03-15T08:21:14;101799.09;;;8.02;100.00
52949;BME280;38812;50.942;3.644;2023-03-15T08:23:39;101795.88;;;8.73;100.00
52949;BME280;38812;50.942;3.644;2023-03-15T08:26:04;101801.13;;;8.78;100.00
52949;BME280;38812;50.942;3.644;2023-03-15T08:28:30;101805.53;;;9.06;100.00
52949;BME280;38812;50.942;3.644;2023-03-15T08:30:55;101811.53;;;8.43;100.00
52949;BME280;38812;50.942;3.644;2023-03-15T08:33:21;101814.63;;;7.70;100.00
52949;BME280;38812;50.942;3.644;2023-03-15T08:35:53;101818.63;;;7.19;100.00
52949;BME280;38812;50.942;3.644;2023-03-15T08:38:18;101816.22;;;6.51;100.00
52949;BME280;38812;50.942;3.644;2023-03-15T08:40:44;101815.97;;;6.30;100.00
52949;BME280;38812;50.942;3.644;2023-03-15T08:43:10;101813.66;;;7.53;100.00
52949;BME280;38812;50.942;3.644;2023-03-15T08:45:36;101815.94;;;8.70;100.00
52949;BME280;38812;50.942;3.644;2023-03-15T08:48:01;101810.75;;;9.32;100.00
52949;BME280;38812;50.942;3.644;2023-03-15T08:50:27;101822.13;;;9.02;100.00
52949;BME280;38812;50.942;3.644;2023-03-15T08:52:55;101819.44;;;8.66;100.00
52949;BME280;38812;50.942;3.644;2023-03-15T08:55:21;101842.06;;;8.42;100.00
52949;BME280;38812;50.942;3.644;2023-03-15T08:57:47;101846.13;;;7.87;100.00
52949;BME280;38812;50.942;3.644;2023-03-15T09:00:12;101847.88;;;7.86;100.00
52949;BME280;38812;50.942;3.644;2023-03-15T09:02:45;101844.00;;;7.33;100.00
52949;BME280;38812;50.942;3.644;2023-03-15T09:05:13;101854.19;;;7.04;100.00
52949;BME280;38812;50.942;3.644;2023-03-15T09:07:40;101850.38;;;6.70;100.00
52949;BME280;38812;50.942;3.644;2023-03-15T09:10:10;101848.69;;;6.76;100.00
52949;BME280;38812;50.942;3.644;2023-03-15T09:12:43;101848.00;;;6.94;100.00
52949;BME280;38812;50.942;3.644;2023-03-15T09:15:09;101848.63;;;6.67;100.00
52949;BME280;38812;50.942;3.644;2023-03-15T09:17:39;101843.41;;;6.72;100.00
52949;BME280;38812;50.942;3.644;2023-03-15T09:20:07;101850.03;;;6.41;100.00
52949;BME280;38812;50.942;3.644;2023-03-15T09:22:38;101847.28;;;6.30;100.00
52949;BME280;38812;50.942;3.644;2023-03-15T09:25:04;101851.44;;;6.13;100.00
52949;BME280;38812;50.942;3.644;2023-03-15T09:27:29;101851.53;;;6.99;100.00
52949;BME280;38812;50.942;3.644;2023-03-15T09:29:55;101848.94;;;8.19;100.00
52949;BME280;38812;50.942;3.644;2023-03-15T09:32:21;101846.88;;;7.69;100.00
52949;BME280;38812;50.942;3.644;2023-03-15T09:34:46;101847.06;;;8.03;100.00
52949;BME280;38812;50.942;3.644;2023-03-15T09:37:12;101844.81;;;9.59;100.00
52949;BME280;38812;50.942;3.644;2023-03-15T09:39:37;101842.84;;;10.44;100.00
52949;BME280;38812;50.942;3.644;2023-03-15T09:42:10;101849.22;;;9.04;100.00
52949;BME280;38812;50.942;3.644;2023-03-15T09:44:47;101831.44;;;10.55;100.00
52949;BME280;38812;50.942;3.644;2023-03-15T09:52:53;101838.63;;;11.48;88.44
52949;BME280;38812;50.942;3.644;2023-03-15T09:55:25;101833.66;;;11.13;100.00
52949;BME280;38812;50.942;3.644;2023-03-15T10:00:46;101849.13;;;9.98;100.00
52949;BME280;38812;50.942;3.644;2023-03-15T10:03:34;101842.38;;;11.24;100.00
52949;BME280;38812;50.942;3.644;2023-03-15T10:06:12;101846.47;;;11.56;100.00
52949;BME280;38812;50.942;3.644;2023-03-15T10:08:40;101842.00;;;11.64;100.00
52949;BME280;38812;50.942;3.644;2023-03-15T10:14:12;101862.34;;;9.45;100.00
52949;BME280;38812;50.942;3.644;2023-03-15T10:16:45;101866.47;;;8.32;100.00
52949;BME280;38812;50.942;3.644;2023-03-15T10:27:33;101872.53;;;8.31;100.00
52949;BME280;38812;50.942;3.644;2023-03-15T10:30:08;101860.75;;;7.59;100.00
52949;BME280;38812;50.942;3.644;2023-03-15T10:32:40;101887.06;;;7.76;100.00
52949;BME280;38812;50.942;3.644;2023-03-15T10:35:17;101873.66;;;9.03;100.00
52949;BME280;38812;50.942;3.644;2023-03-15T10:37:43;101864.03;;;9.89;100.00
52949;BME280;38812;50.942;3.644;2023-03-15T10:40:10;101871.53;;;10.85;100.00
52949;BME280;38812;50.942;3.644;2023-03-15T10:42:45;101869.56;;;11.23;100.00
52949;BME280;38812;50.942;3.644;2023-03-15T10:45:23;101878.06;;;11.54;100.00
52949;BME280;38812;50.942;3.644;2023-03-15T10:47:49;101878.34;;;11.22;100.00
52949;BME280;38812;50.942;3.644;2023-03-15T10:50:31;101880.66;;;9.80;100.00
52949;BME280;38812;50.942;3.644;2023-03-15T10:52:59;101875.13;;;10.70;100.00
52949;BME280;38812;50.942;3.644;2023-03-15T10:55:34;101888.13;;;11.02;100.00
52949;BME280;38812;50.942;3.644;2023-03-15T10:58:26;101881.88;;;11.15;100.00
52949;BME280;38812;50.942;3.644;2023-03-15T11:01:00;101878.94;;;11.52;100.00
52949;BME280;38812;50.942;3.644;2023-03-15T11:03:27;101882.25;;;11.74;91.85
52949;BME280;38812;50.942;3.644;2023-03-15T11:05:54;101876.44;;;11.41;97.71
52949;BME280;38812;50.942;3.644;2023-03-15T11:08:22;101886.50;;;10.80;88.51
52949;BME280;38812;50.942;3.644;2023-03-15T11:10:58;101892.50;;;11.03;93.86
52949;BME280;38812;50.942;3.644;2023-03-15T11:13:29;101896.03;;;10.96;85.18
52949;BME280;38812;50.942;3.644;2023-03-15T11:15:59;101896.81;;;11.12;89.26
52949;BME280;38812;50.942;3.644;2023-03-15T11:18:34;101893.16;;;11.32;90.29
52949;BME280;38812;50.942;3.644;2023-03-15T11:21:01;101899.09;;;11.59;98.14
52949;BME280;38812;50.942;3.644;2023-03-15T11:23:32;101880.53;;;11.73;96.78
52949;BME280;38812;50.942;3.644;2023-03-15T11:25:58;101898.22;;;11.57;91.06
52949;BME280;38812;50.942;3.644;2023-03-15T11:28:27;101877.50;;;11.13;100.00
52949;BME280;38812;50.942;3.644;2023-03-15T11:30:54;101890.19;;;11.72;90.26
52949;BME280;38812;50.942;3.644;2023-03-15T11:33:37;101883.06;;;11.86;85.65
52949;BME280;38812;50.942;3.644;2023-03-15T11:36:09;101874.19;;;11.93;95.27
52949;BME280;38812;50.942;3.644;2023-03-15T11:38:40;101855.00;;;11.85;90.78
52949;BME280;38812;50.942;3.644;2023-03-15T11:46:56;101861.50;;;11.43;86.98
52949;BME280;38812;50.942;3.644;2023-03-15T11:49:54;101879.72;;;11.66;87.09
52949;BME280;38812;50.942;3.644;2023-03-15T11:52:26;101883.34;;;11.53;80.23
52949;BME280;38812;50.942;3.644;2023-03-15T11:54:55;101877.31;;;11.42;88.18
52949;BME280;38812;50.942;3.644;2023-03-15T11:58:26;101874.72;;;11.32;92.08
52949;BME280;38812;50.942;3.644;2023-03-15T12:08:48;101879.75;;;11.61;94.03
52949;BME280;38812;50.942;3.644;2023-03-15T12:14:04;101871.25;;;11.26;82.00
52949;BME280;38812;50.942;3.644;2023-03-15T12:16:34;101857.72;;;10.49;88.48
52949;BME280;38812;50.942;3.644;2023-03-15T12:19:18;101869.19;;;10.28;89.05
52949;BME280;38812;50.942;3.644;2023-03-15T12:21:52;101868.97;;;10.79;98.58
52949;BME280;38812;50.942;3.644;2023-03-15T12:24:22;101859.94;;;11.18;99.23
52949;BME280;38812;50.942;3.644;2023-03-15T12:26:59;101854.22;;;10.52;90.13
52949;BME280;38812;50.942;3.644;2023-03-15T12:29:27;101861.59;;;11.31;91.34
52949;BME280;38812;50.942;3.644;2023-03-15T12:32:07;101841.41;;;11.30;84.12
52949;BME280;38812;50.942;3.644;2023-03-15T12:34:43;101852.03;;;11.19;85.73
52949;BME280;38812;50.942;3.644;2023-03-15T12:39:46;101851.19;;;11.16;89.81
52949;BME280;38812;50.942;3.644;2023-03-15T12:59:04;101853.94;;;11.02;89.46
52949;BME280;38812;50.942;3.644;2023-03-15T13:01:34;101851.19;;;11.19;88.07
52949;BME280;38812;50.942;3.644;2023-03-15T13:04:00;101853.06;;;11.02;92.41
52949;BME280;38812;50.942;3.644;2023-03-15T13:07:03;101851.19;;;11.16;90.45
52949;BME280;38812;50.942;3.644;2023-03-15T13:12:12;101844.63;;;10.42;92.03
52949;BME280;38812;50.942;3.644;2023-03-15T13:18:24;101852.38;;;10.68;96.96
52949;BME280;38812;50.942;3.644;2023-03-15T13:23:30;101840.72;;;11.05;90.11
52949;BME280;38812;50.942;3.644;2023-03-15T13:26:23;101829.28;;;11.12;82.50
52949;BME280;38812;50.942;3.644;2023-03-15T13:29:15;101845.22;;;10.94;88.12
52949;BME280;38812;50.942;3.644;2023-03-15T13:31:44;101841.88;;;10.64;82.82
52949;BME280;38812;50.942;3.644;2023-03-15T13:34:21;101853.19;;;10.82;85.31
52949;BME280;38812;50.942;3.644;2023-03-15T13:36:54;101845.22;;;10.91;85.56
52949;BME280;38812;50.942;3.644;2023-03-15T13:39:28;101853.13;;;10.85;80.13
52949;BME280;38812;50.942;3.644;2023-03-15T13:42:02;101848.75;;;10.90;81.50
52949;BME280;38812;50.942;3.644;2023-03-15T13:44:29;101865.38;;;10.95;79.11
52949;BME280;38812;50.942;3.644;2023-03-15T13:46:55;101859.38;;;10.69;78.11
52949;BME280;38812;50.942;3.644;2023-03-15T13:49:22;101849.69;;;10.81;82.01
52949;BME280;38812;50.942;3.644;2023-03-15T13:51:48;101859.47;;;10.56;81.79
52949;BME280;38812;50.942;3.644;2023-03-15T13:54:27;101859.50;;;10.44;79.23
52949;BME280;38812;50.942;3.644;2023-03-15T13:57:15;101859.56;;;10.32;82.38
52949;BME280;38812;50.942;3.644;2023-03-15T13:59:52;101863.09;;;10.22;83.41
52949;BME280;38812;50.942;3.644;2023-03-15T14:02:23;101860.47;;;10.08;81.88
52949;BME280;38812;50.942;3.644;2023-03-15T14:04:56;101851.72;;;10.14;86.73
52949;BME280;38812;50.942;3.644;2023-03-15T14:07:37;101857.91;;;9.82;94.50